createdAt,value
2022-11-28T12:14:28.088Z,29.35
2022-11-28T12:17:47.934Z,30.50
2022-11-28T12:20:31.177Z,30.38
2022-11-28T12:25:45.194Z,32.22
2022-11-28T12:28:28.293Z,32.05
2022-11-28T12:31:45.490Z,32.17
2022-11-28T12:34:26.171Z,32.38
2022-11-28T12:37:20.540Z,30.35
2022-11-28T12:40:12.147Z,32.07
2022-11-28T12:43:01.153Z,30.15
2022-11-28T12:45:35.936Z,26.38
2022-11-28T12:48:17.503Z,30.23
2022-11-28T12:50:50.033Z,25.60
2022-11-28T12:53:48.612Z,24.50
2022-11-28T12:56:17.858Z,27.08
2022-11-28T12:58:51.621Z,24.40
2022-11-28T13:01:52.083Z,25.67
2022-11-28T13:04:32.619Z,26.60
2022-11-28T13:07:24.849Z,28.70
2022-11-28T13:10:12.122Z,29.60
2022-11-28T13:12:47.463Z,30.30
2022-11-28T13:15:30.523Z,28.33
2022-11-28T13:18:35.819Z,26.88
2022-11-28T13:21:33.387Z,26.05
2022-11-28T13:24:07.314Z,28.73
2022-11-28T13:26:42.695Z,32.67
2022-11-28T13:29:45.138Z,28.65
2022-11-28T13:32:48.658Z,24.77
2022-11-28T13:35:17.862Z,25.48
2022-11-28T13:43:46.356Z,24.60
2022-11-28T13:46:18.371Z,26.75
2022-11-28T13:51:35.277Z,27.05
2022-11-28T13:54:17.532Z,27.98
2022-11-28T13:57:03.653Z,23.85
2022-11-28T13:59:31.774Z,27.35
2022-11-28T14:02:01.990Z,27.13
2022-11-28T14:04:31.265Z,27.95
2022-11-28T14:07:06.794Z,28.35
2022-11-28T14:10:07.207Z,24.83
2022-11-28T14:12:47.290Z,26.95
2022-11-28T14:15:34.811Z,24.27
2022-11-28T14:18:55.865Z,27.75
2022-11-28T14:21:42.993Z,26.23
2022-11-28T14:24:45.746Z,28.17
2022-11-28T14:27:36.580Z,34.60
2022-11-28T14:30:04.665Z,28.90
2022-11-28T14:32:47.067Z,27.45
2022-11-28T14:35:39.609Z,29.85
2022-11-28T14:38:46.425Z,27.15
2022-11-28T14:41:13.782Z,25.73
2022-11-28T14:43:52.176Z,30.42
2022-11-28T14:46:27.644Z,28.10
2022-11-28T14:49:00.758Z,29.00
2022-11-28T14:51:45.849Z,29.63
2022-11-28T14:54:36.362Z,27.40
2022-11-28T14:57:11.744Z,30.15
2022-11-28T14:59:43.280Z,26.75
2022-11-28T15:02:13.102Z,29.75
2022-11-28T15:05:17.207Z,31.92
2022-11-28T15:08:11.546Z,32.50
2022-11-28T15:10:54.044Z,35.63
2022-11-28T15:13:50.227Z,30.98
2022-11-28T15:16:18.957Z,32.13
2022-11-28T15:21:22.651Z,33.53
2022-11-28T15:23:51.259Z,29.30
2022-11-28T15:26:29.403Z,27.75
2022-11-28T15:29:30.277Z,32.50
2022-11-28T15:31:59.608Z,29.90
2022-11-28T15:34:32.118Z,30.00
2022-11-28T15:37:20.060Z,27.95
2022-11-28T15:39:50.256Z,34.75
2022-11-28T15:42:26.996Z,34.47
2022-11-28T15:45:17.017Z,36.97
2022-11-28T15:47:45.747Z,35.10
2022-11-28T15:50:19.886Z,37.80
2022-11-28T15:53:15.064Z,32.80
2022-11-28T15:55:42.124Z,30.13
2022-11-28T15:58:21.275Z,30.92
2022-11-28T16:01:03.095Z,29.50
2022-11-28T16:03:35.623Z,29.60
2022-11-28T16:06:03.988Z,27.42
2022-11-28T16:08:35.315Z,31.35
2022-11-28T16:11:08.644Z,32.65
2022-11-28T16:13:38.106Z,30.92
2022-11-28T16:16:16.751Z,32.25
2022-11-28T16:18:57.277Z,32.25
2022-11-28T16:21:28.797Z,34.25
2022-11-28T16:23:55.953Z,29.98
2022-11-28T16:26:36.856Z,28.33
2022-11-28T16:29:09.549Z,29.05
2022-11-28T16:31:39.955Z,27.90
2022-11-28T16:34:12.770Z,28.23
2022-11-28T16:36:40.061Z,29.02
2022-11-28T16:39:09.606Z,28.45
2022-11-28T16:41:37.787Z,28.27
2022-11-28T16:44:07.372Z,26.58
2022-11-28T16:46:57.873Z,26.83
2022-11-28T16:49:28.011Z,31.13
2022-11-28T16:52:22.377Z,35.22
2022-11-28T16:54:49.758Z,38.33
2022-11-28T16:57:17.037Z,30.65
2022-11-28T16:59:44.732Z,30.70
2022-11-28T17:02:18.927Z,29.50
2022-11-28T17:04:47.630Z,32.10
2022-11-28T17:07:17.534Z,34.20
2022-11-28T17:09:46.020Z,30.50
2022-11-28T17:12:30.377Z,32.40
2022-11-28T17:14:59.820Z,32.83
2022-11-28T17:17:27.887Z,30.73
2022-11-28T17:19:54.745Z,30.95
2022-11-28T17:22:25.778Z,34.08
2022-11-28T17:24:59.286Z,33.63
2022-11-28T17:27:26.001Z,32.00
2022-11-28T17:29:52.625Z,34.03
2022-11-28T17:32:19.265Z,32.67
2022-11-28T17:34:46.557Z,34.05
2022-11-28T17:37:13.661Z,31.67
2022-11-28T17:39:40.461Z,35.97
2022-11-28T17:42:07.098Z,33.25
2022-11-28T17:44:40.540Z,34.40
2022-11-28T17:47:07.124Z,33.72
2022-11-28T17:49:33.820Z,35.10
2022-11-28T17:52:02.381Z,35.35
2022-11-28T17:54:32.164Z,33.15
2022-11-28T17:56:59.011Z,31.80
2022-11-28T17:59:26.029Z,31.05
2022-11-28T18:01:53.203Z,29.10
2022-11-28T18:04:19.858Z,29.08
2022-11-28T18:06:47.353Z,30.33
2022-11-28T18:09:14.715Z,30.42
2022-11-28T18:11:42.163Z,28.85
2022-11-28T18:14:09.063Z,28.52
2022-11-28T18:16:35.744Z,28.65
2022-11-28T18:19:03.562Z,30.85
2022-11-28T18:21:30.168Z,27.65
2022-11-28T18:23:56.767Z,27.85
2022-11-28T18:26:24.884Z,27.48
2022-11-28T18:28:51.915Z,24.15
2022-11-28T18:31:20.447Z,27.70
2022-11-28T18:33:47.242Z,27.05
2022-11-28T18:36:37.705Z,28.83
2022-11-28T18:39:06.842Z,28.08
2022-11-28T18:41:33.585Z,25.45
2022-11-28T18:44:02.056Z,24.38
2022-11-28T18:46:29.898Z,23.88
2022-11-28T18:48:56.779Z,31.15
2022-11-28T18:51:29.699Z,30.65
2022-11-28T18:53:57.427Z,30.70
2022-11-28T18:56:26.585Z,28.83
2022-11-28T18:58:54.277Z,28.55
2022-11-28T19:01:24.150Z,28.02
2022-11-28T19:03:53.244Z,28.30
2022-11-28T19:06:21.070Z,32.00
2022-11-28T19:08:48.507Z,34.50
2022-11-28T19:11:16.700Z,37.40
2022-11-28T19:13:47.768Z,34.08
2022-11-28T19:16:17.738Z,39.60
2022-11-28T19:18:45.039Z,42.75
2022-11-28T19:21:15.562Z,35.60
2022-11-28T19:23:43.290Z,30.90
2022-11-28T19:26:13.041Z,34.75
2022-11-28T19:28:41.317Z,36.67
2022-11-28T19:31:12.546Z,30.30
2022-11-28T19:33:39.205Z,28.77
2022-11-28T19:36:08.578Z,27.58
2022-11-28T19:38:38.692Z,30.38
2022-11-28T19:41:20.127Z,27.05
2022-11-28T19:43:50.134Z,26.92
2022-11-28T19:46:18.516Z,26.13
2022-11-28T19:48:45.349Z,27.17
2022-11-28T19:51:12.869Z,25.08
2022-11-28T19:53:41.638Z,23.42
2022-11-28T19:56:15.414Z,24.65
2022-11-28T19:58:43.210Z,21.50
2022-11-28T20:01:15.505Z,22.10
2022-11-28T20:03:42.982Z,21.98
2022-11-28T20:06:11.951Z,20.08
2022-11-28T20:08:39.098Z,26.42
2022-11-28T20:11:15.458Z,23.13
2022-11-28T20:13:44.590Z,23.17
2022-11-28T20:16:13.319Z,22.05
2022-11-28T20:18:41.608Z,22.30
2022-11-28T20:21:17.036Z,26.58
2022-11-28T20:23:46.482Z,25.70
2022-11-28T20:26:14.891Z,22.17
2022-11-28T20:28:42.605Z,25.55
2022-11-28T20:31:39.314Z,24.02
2022-11-28T20:34:09.640Z,23.83
2022-11-28T20:36:39.715Z,24.48
2022-11-28T20:39:07.399Z,24.27
2022-11-28T20:41:34.024Z,26.50
2022-11-28T20:44:02.049Z,23.08
2022-11-28T20:46:31.453Z,21.23
2022-11-28T20:49:00.811Z,21.02
2022-11-28T20:51:33.366Z,21.00
2022-11-28T20:54:01.312Z,25.65
2022-11-28T20:56:30.751Z,22.88
2022-11-28T20:59:02.530Z,25.23
2022-11-28T21:01:34.238Z,24.20
2022-11-28T21:04:06.563Z,22.50
2022-11-28T21:06:39.444Z,25.27
2022-11-28T21:09:06.726Z,20.85
2022-11-28T21:14:20.150Z,21.30
2022-11-28T21:16:46.766Z,21.85
2022-11-28T21:19:13.529Z,22.10
2022-11-28T21:21:40.242Z,21.50
2022-11-28T21:24:15.282Z,22.17
2022-11-28T21:26:53.112Z,23.05
2022-11-28T21:29:21.595Z,25.13
2022-11-28T21:31:48.411Z,23.23
2022-11-28T21:34:16.952Z,22.75
2022-11-28T21:36:44.149Z,24.08
2022-11-28T21:39:14.497Z,24.92
2022-11-28T21:41:41.298Z,23.23
2022-11-28T21:44:07.944Z,22.40
2022-11-28T21:46:38.327Z,22.35
2022-11-28T21:49:04.940Z,23.20
2022-11-28T21:51:31.808Z,23.15
2022-11-28T21:53:59.721Z,24.35
2022-11-28T21:56:26.684Z,22.58
2022-11-28T21:58:53.400Z,23.05
2022-11-28T22:01:20.139Z,25.60
2022-11-28T22:03:47.226Z,24.25
2022-11-28T22:06:23.263Z,23.70
2022-11-28T22:08:50.672Z,26.67
2022-11-28T22:11:18.981Z,24.08
2022-11-28T22:13:48.193Z,24.70
2022-11-28T22:16:23.484Z,24.92
2022-11-28T22:19:01.433Z,26.02
2022-11-28T22:21:51.433Z,25.02
2022-11-28T22:24:16.083Z,23.73
2022-11-28T22:26:42.924Z,27.63
2022-11-28T22:29:09.813Z,26.48
2022-11-28T22:31:36.540Z,25.80
2022-11-28T22:34:06.049Z,29.13
2022-11-28T22:36:32.679Z,31.38
2022-11-28T22:38:59.597Z,34.53
2022-11-28T22:41:31.277Z,29.63
2022-11-28T22:44:00.899Z,33.40
2022-11-28T22:46:29.034Z,35.20
2022-11-28T22:48:58.894Z,36.10
2022-11-28T22:51:27.061Z,35.88
2022-11-28T22:53:55.030Z,37.75
2022-11-28T22:56:24.554Z,36.28
2022-11-28T22:58:52.125Z,33.03
2022-11-28T23:01:25.018Z,37.20
2022-11-28T23:03:52.467Z,37.35
2022-11-28T23:06:22.958Z,37.20
2022-11-28T23:08:51.375Z,34.25
2022-11-28T23:11:20.997Z,37.15
2022-11-28T23:13:50.454Z,34.80
2022-11-28T23:16:26.918Z,34.75
2022-11-28T23:18:56.129Z,34.65
2022-11-28T23:21:24.099Z,37.15
2022-11-28T23:23:51.391Z,34.30
2022-11-28T23:26:20.850Z,35.65
2022-11-28T23:28:48.271Z,32.92
2022-11-28T23:31:25.561Z,33.30
2022-11-28T23:33:53.666Z,36.80
2022-11-28T23:36:23.109Z,32.78
2022-11-28T23:38:52.097Z,32.65
2022-11-28T23:41:19.113Z,36.55
2022-11-28T23:43:46.378Z,34.72
2022-11-28T23:46:14.448Z,33.60
2022-11-28T23:48:41.661Z,29.48
2022-11-28T23:51:08.546Z,33.30
2022-11-28T23:53:36.138Z,35.25
2022-11-28T23:56:14.475Z,32.28
2022-11-28T23:58:41.860Z,31.60
